Time;durP1;ratioP1;P1;durP2;ratioP2;P2;SDS_P1;SDS_P2;PMS_P1;PMS_P2;Temp;Humidity;BMP_temperature;BMP_pressure;BME280_temperature;BME280_humidity;BME280_pressure;Samples;Min_cycle;Max_cycle;Signal;HPM_P1;HPM_P2
2022/06/12 00:00:37;;;;;;;;;;;15.10;99.90;;;;;;5061442;28;19912;-61
2022/06/12 00:03:03;;;;;;;;;;;15.10;99.90;;;;;;5058286;28;20400;-61
2022/06/12 00:05:31;;;;;;;;;;;15.00;99.90;;;;;;5064018;28;20062;-62
2022/06/12 00:07:57;;;;;;;;;;;15.00;99.90;;;;;;5055909;28;20002;-61
2022/06/12 00:10:23;;;;;;;;;;;15.00;99.90;;;;;;5058505;28;20097;-62
2022/06/12 00:12:48;;;;;;;;;;;14.90;99.90;;;;;;5068008;28;20011;-61
2022/06/12 00:15:15;;;;;;;;;;;14.70;99.90;;;;;;5066562;28;19915;-61
2022/06/12 00:17:43;;;;;;;;;;;14.60;99.90;;;;;;5068771;28;19915;-61
2022/06/12 00:20:10;;;;;;;;;;;14.50;99.90;;;;;;5057465;28;19909;-61
2022/06/12 00:22:36;;;;;;;;;;;14.50;99.90;;;;;;5060426;28;20185;-60
2022/06/12 00:25:02;;;;;;;;;;;14.50;99.90;;;;;;5058258;28;19924;-61
2022/06/12 00:27:28;;;;;;;;;;;14.60;99.90;;;;;;5063565;28;19912;-61
2022/06/12 00:29:53;;;;;;;;;;;14.70;99.90;;;;;;5064853;28;20679;-60
2022/06/12 00:32:19;;;;;;;;;;;14.70;99.90;;;;;;5064324;28;20366;-61
2022/06/12 00:34:48;;;;;;;;;;;14.70;99.90;;;;;;5064305;28;20011;-64
2022/06/12 00:37:14;;;;;;;;;;;14.60;99.90;;;;;;5059963;28;19912;-61
2022/06/12 00:39:40;;;;;;;;;;;14.40;99.90;;;;;;5064855;28;19950;-61
2022/06/12 00:42:07;;;;;;;;;;;14.30;99.90;;;;;;5062671;28;19942;-62
2022/06/12 00:44:36;;;;;;;;;;;14.20;99.90;;;;;;5057566;28;20514;-60
2022/06/12 00:47:04;;;;;;;;;;;14.20;99.90;;;;;;5059059;28;19912;-60
2022/06/12 00:49:35;;;;;;;;;;;14.10;99.90;;;;;;5065464;28;20358;-61
2022/06/12 00:52:07;;;;;;;;;;;14.00;99.90;;;;;;5064281;28;19920;-62
2022/06/12 00:54:33;;;;;;;;;;;13.90;99.90;;;;;;5063478;28;19917;-61
2022/06/12 00:57:01;;;;;;;;;;;13.90;99.90;;;;;;5058741;28;19919;-61
2022/06/12 00:59:47;;;;;;;;;;;14.00;99.90;;;;;;5062597;28;19912;-61
2022/06/12 01:02:15;;;;;;;;;;;14.00;99.90;;;;;;5060939;28;19969;-61
2022/06/12 01:07:29;;;;;;;;;;;13.90;99.90;;;;;;5065589;28;19953;-61
2022/06/12 01:09:56;;;;;;;;;;;13.90;99.90;;;;;;5063220;28;19965;-61
2022/06/12 01:12:25;;;;;;;;;;;14.00;99.90;;;;;;5062058;28;19952;-60
2022/06/12 01:14:55;;;;;;;;;;;14.00;99.90;;;;;;5063259;28;20388;-61
2022/06/12 01:17:21;;;;;;;;;;;13.90;99.90;;;;;;5059403;28;19919;-62
2022/06/12 01:19:53;;;;;;;;;;;13.80;99.90;;;;;;5062296;28;19913;-65
2022/06/12 01:22:25;;;;;;;;;;;13.70;99.90;;;;;;5068657;28;19916;-62
2022/06/12 01:24:50;;;;;;;;;;;13.70;99.90;;;;;;5064485;28;19919;-63
2022/06/12 01:27:16;;;;;;;;;;;13.80;99.90;;;;;;5043281;28;20285;-61
2022/06/12 01:29:53;;;;;;;;;;;13.70;99.90;;;;;;5060747;28;19911;-61
2022/06/12 01:32:28;;;;;;;;;;;13.60;99.90;;;;;;5060720;28;19964;-61
2022/06/12 01:35:05;;;;;;;;;;;13.50;99.90;;;;;;5068209;28;20028;-61
2022/06/12 01:37:31;;;;;;;;;;;13.40;99.90;;;;;;5066285;28;19916;-60
2022/06/12 01:40:05;;;;;;;;;;;13.40;99.90;;;;;;5061549;28;19920;-62
2022/06/12 01:42:40;;;;;;;;;;;13.50;99.90;;;;;;5062909;28;19927;-61
2022/06/12 01:45:06;;;;;;;;;;;13.50;99.90;;;;;;5060600;28;19916;-61
2022/06/12 01:47:37;;;;;;;;;;;13.60;99.90;;;;;;5065779;28;19923;-61
2022/06/12 01:50:03;;;;;;;;;;;13.60;99.90;;;;;;5063340;28;19917;-61
2022/06/12 01:52:47;;;;;;;;;;;13.50;99.90;;;;;;5060549;28;19924;-61
2022/06/12 01:55:15;;;;;;;;;;;13.40;99.90;;;;;;5062953;28;19912;-62
2022/06/12 01:57:45;;;;;;;;;;;13.40;99.90;;;;;;5061552;28;20842;-61
2022/06/12 02:00:13;;;;;;;;;;;13.40;99.90;;;;;;5060607;28;19908;-61
2022/06/12 02:02:45;;;;;;;;;;;13.40;99.90;;;;;;5058948;28;19963;-61
2022/06/12 02:05:23;;;;;;;;;;;13.30;99.90;;;;;;5061396;28;19909;-61
2022/06/12 02:08:02;;;;;;;;;;;13.30;99.90;;;;;;5064159;28;19916;-61
2022/06/12 02:10:34;;;;;;;;;;;13.30;99.90;;;;;;5061783;28;21565;-60
2022/06/12 02:13:11;;;;;;;;;;;13.40;99.90;;;;;;5065537;28;19944;-61
2022/06/12 02:15:50;;;;;;;;;;;13.30;99.90;;;;;;5052832;28;19915;-61
2022/06/12 02:18:19;;;;;;;;;;;13.40;99.90;;;;;;5060103;28;19912;-62
2022/06/12 02:20:48;;;;;;;;;;;13.40;99.90;;;;;;5064682;28;19913;-61
2022/06/12 02:23:18;;;;;;;;;;;13.40;99.90;;;;;;5062791;28;20414;-62
2022/06/12 02:25:45;;;;;;;;;;;13.30;99.90;;;;;;5063225;28;19916;-62
2022/06/12 02:28:19;;;;;;;;;;;13.20;99.90;;;;;;5062090;28;19943;-61
2022/06/12 02:30:48;;;;;;;;;;;13.10;99.90;;;;;;5062152;28;20421;-61
2022/06/12 02:33:16;;;;;;;;;;;13.00;99.90;;;;;;5061429;28;20512;-61
2022/06/12 02:35:47;;;;;;;;;;;12.90;99.90;;;;;;5063743;28;19908;-61
2022/06/12 02:38:16;;;;;;;;;;;12.90;99.90;;;;;;5061850;28;19931;-62
2022/06/12 02:40:44;;;;;;;;;;;12.80;99.90;;;;;;5069039;28;19908;-60
2022/06/12 02:43:15;;;;;;;;;;;12.80;99.90;;;;;;5065947;28;19926;-61
2022/06/12 02:45:44;;;;;;;;;;;12.90;99.90;;;;;;5060838;28;20007;-61
2022/06/12 02:48:10;;;;;;;;;;;12.80;99.90;;;;;;5062106;28;19919;-61
2022/06/12 02:50:49;;;;;;;;;;;12.80;99.90;;;;;;5061850;28;19912;-61
2022/06/12 02:53:20;;;;;;;;;;;12.80;99.90;;;;;;5050786;28;19964;-61
2022/06/12 02:56:12;;;;;;;;;;;12.80;99.90;;;;;;5061959;28;20163;-61
2022/06/12 02:58:59;;;;;;;;;;;12.80;99.90;;;;;;5058950;28;19951;-61
2022/06/12 03:01:30;;;;;;;;;;;12.90;99.90;;;;;;5060966;28;20718;-61
2022/06/12 03:04:02;;;;;;;;;;;12.80;99.90;;;;;;5061764;28;20081;-64
2022/06/12 03:06:27;;;;;;;;;;;12.80;99.90;;;;;;5068334;28;19971;-60
2022/06/12 03:08:56;;;;;;;;;;;12.90;99.90;;;;;;5064751;28;19919;-64
2022/06/12 03:11:36;;;;;;;;;;;12.80;99.90;;;;;;5060895;28;19915;-63
2022/06/12 03:14:04;;;;;;;;;;;12.70;99.90;;;;;;5058191;28;19959;-62
2022/06/12 03:16:31;;;;;;;;;;;12.70;99.90;;;;;;5062356;28;20364;-61
2022/06/12 03:19:00;;;;;;;;;;;12.70;99.90;;;;;;5064183;28;19957;-63
2022/06/12 03:21:26;;;;;;;;;;;12.70;99.90;;;;;;5068734;28;19965;-61
2022/06/12 03:24:10;;;;;;;;;;;12.70;99.90;;;;;;5059476;28;20344;-61
2022/06/12 03:27:01;;;;;;;;;;;12.70;99.90;;;;;;5063254;28;19912;-63
2022/06/12 03:29:39;;;;;;;;;;;12.60;99.90;;;;;;5025265;28;19919;-62
2022/06/12 03:32:13;;;;;;;;;;;12.60;99.90;;;;;;5066109;28;19966;-61
2022/06/12 03:34:44;;;;;;;;;;;12.50;99.90;;;;;;5067566;28;19919;-61
2022/06/12 03:37:18;;;;;;;;;;;12.50;99.90;;;;;;5065572;28;19909;-61
2022/06/12 03:39:57;;;;;;;;;;;12.40;99.90;;;;;;5067768;28;21606;-61
2022/06/12 03:42:33;;;;;;;;;;;12.40;99.90;;;;;;5064917;28;19920;-60
2022/06/12 03:45:05;;;;;;;;;;;12.50;99.90;;;;;;5068086;28;19935;-63
2022/06/12 03:47:35;;;;;;;;;;;12.50;99.90;;;;;;5055681;28;19912;-63
2022/06/12 03:50:04;;;;;;;;;;;12.60;99.90;;;;;;5063581;28;19912;-63
2022/06/12 03:52:37;;;;;;;;;;;12.60;99.90;;;;;;5065837;28;19919;-61
2022/06/12 03:55:17;;;;;;;;;;;12.60;99.90;;;;;;5050988;28;19909;-62
2022/06/12 03:57:54;;;;;;;;;;;12.60;99.90;;;;;;5066911;28;19913;-61
2022/06/12 04:00:23;;;;;;;;;;;12.70;99.90;;;;;;5060265;28;20314;-61
2022/06/12 04:03:00;;;;;;;;;;;12.80;99.90;;;;;;5066869;28;20054;-61
2022/06/12 04:05:35;;;;;;;;;;;12.80;99.90;;;;;;5066510;28;19940;-60
2022/06/12 04:08:02;;;;;;;;;;;13.00;99.90;;;;;;5058322;28;19974;-64
2022/06/12 04:10:30;;;;;;;;;;;13.10;99.90;;;;;;5067241;28;20354;-62
2022/06/12 04:12:55;;;;;;;;;;;13.20;99.90;;;;;;5066342;28;19912;-61
2022/06/12 04:15:41;;;;;;;;;;;13.30;99.90;;;;;;5048233;28;20327;-61
2022/06/12 04:18:10;;;;;;;;;;;13.40;99.90;;;;;;5043158;28;19919;-61
2022/06/12 04:20:45;;;;;;;;;;;13.40;99.90;;;;;;5063966;28;19915;-61
2022/06/12 04:23:16;;;;;;;;;;;13.50;99.90;;;;;;5041045;28;20346;-61
2022/06/12 04:25:43;;;;;;;;;;;13.50;99.90;;;;;;5062490;28;19983;-61
2022/06/12 04:28:27;;;;;;;;;;;13.50;99.90;;;;;;5066614;28;19916;-61
2022/06/12 04:30:53;;;;;;;;;;;13.60;99.90;;;;;;5058481;28;19919;-62
2022/06/12 04:33:24;;;;;;;;;;;13.80;99.90;;;;;;5059737;28;19909;-62
2022/06/12 04:35:54;;;;;;;;;;;13.90;99.90;;;;;;5064575;28;19912;-61
2022/06/12 04:38:20;;;;;;;;;;;14.10;99.90;;;;;;5064998;28;19915;-61
2022/06/12 04:40:46;;;;;;;;;;;14.20;99.90;;;;;;5065650;28;19912;-61
2022/06/12 04:43:11;;;;;;;;;;;14.20;99.90;;;;;;5060882;28;20282;-60
2022/06/12 04:45:38;;;;;;;;;;;14.20;99.90;;;;;;5064267;28;19909;-61
2022/06/12 04:48:04;;;;;;;;;;;14.20;99.90;;;;;;5065153;28;19913;-64
2022/06/12 04:50:30;;;;;;;;;;;14.40;99.90;;;;;;5058001;28;19991;-60
2022/06/12 04:52:55;;;;;;;;;;;14.60;99.90;;;;;;5058980;28;20011;-62
2022/06/12 04:55:21;;;;;;;;;;;14.60;99.90;;;;;;5062862;28;19936;-62
2022/06/12 04:57:46;;;;;;;;;;;14.70;99.90;;;;;;5068246;28;19916;-62
2022/06/12 05:00:12;;;;;;;;;;;14.80;99.90;;;;;;5045962;28;19948;-61
2022/06/12 05:02:38;;;;;;;;;;;14.90;99.90;;;;;;5060116;28;19924;-62
2022/06/12 05:05:04;;;;;;;;;;;15.00;99.90;;;;;;5063129;28;19912;-64
2022/06/12 05:07:29;;;;;;;;;;;15.10;99.90;;;;;;5059017;28;20274;-61
2022/06/12 05:09:55;;;;;;;;;;;15.30;99.90;;;;;;5059851;28;20429;-61
2022/06/12 05:12:20;;;;;;;;;;;15.40;99.90;;;;;;5063463;28;19934;-61
2022/06/12 05:14:46;;;;;;;;;;;15.50;99.90;;;;;;5064091;28;19942;-61
2022/06/12 05:17:12;;;;;;;;;;;15.70;99.90;;;;;;5067496;28;20340;-61
2022/06/12 05:19:39;;;;;;;;;;;15.90;99.90;;;;;;5062873;28;19912;-60
2022/06/12 05:22:06;;;;;;;;;;;16.00;99.90;;;;;;5070930;28;20003;-63
2022/06/12 05:24:32;;;;;;;;;;;16.10;99.90;;;;;;5070401;28;19904;-60
2022/06/12 05:26:59;;;;;;;;;;;16.10;99.90;;;;;;5071761;28;19908;-61
2022/06/12 05:29:30;;;;;;;;;;;16.20;99.90;;;;;;5064804;28;19904;-61
2022/06/12 05:31:56;;;;;;;;;;;16.20;99.90;;;;;;5069937;28;19927;-61
2022/06/12 05:34:23;;;;;;;;;;;16.30;99.90;;;;;;5070023;28;20485;-61
2022/06/12 05:36:48;;;;;;;;;;;16.30;99.90;;;;;;5071643;28;20395;-62
2022/06/12 05:39:14;;;;;;;;;;;16.40;99.90;;;;;;5064515;28;19908;-61
2022/06/12 05:41:40;;;;;;;;;;;16.40;99.90;;;;;;5071411;28;19962;-60
2022/06/12 05:44:05;;;;;;;;;;;16.60;99.90;;;;;;5067370;28;20389;-63
2022/06/12 05:46:31;;;;;;;;;;;16.70;99.90;;;;;;5070518;28;20334;-61
2022/06/12 05:48:57;;;;;;;;;;;16.90;99.90;;;;;;5068993;28;19943;-61
2022/06/12 05:51:22;;;;;;;;;;;17.00;99.90;;;;;;5054622;28;20011;-62
2022/06/12 05:53:48;;;;;;;;;;;17.10;99.90;;;;;;5054748;28;20331;-62
2022/06/12 05:56:15;;;;;;;;;;;17.40;99.90;;;;;;5070005;28;19927;-61
2022/06/12 05:58:41;;;;;;;;;;;17.60;99.90;;;;;;5064323;28;21803;-63
2022/06/12 06:01:08;;;;;;;;;;;17.80;99.90;;;;;;5056906;28;19916;-65
2022/06/12 06:03:34;;;;;;;;;;;18.10;99.90;;;;;;5064674;28;19932;-61
2022/06/12 06:06:00;;;;;;;;;;;18.30;99.90;;;;;;5069321;28;19995;-62
2022/06/12 06:08:25;;;;;;;;;;;18.40;99.90;;;;;;5067869;28;20003;-61
2022/06/12 06:10:51;;;;;;;;;;;18.50;99.90;;;;;;5066903;28;20254;-61
2022/06/12 06:13:16;;;;;;;;;;;18.60;99.90;;;;;;5068753;28;20430;-62
2022/06/12 06:15:43;;;;;;;;;;;18.70;99.90;;;;;;5068215;28;19904;-61
2022/06/12 06:18:09;;;;;;;;;;;18.90;99.90;;;;;;5063916;28;19920;-62
2022/06/12 06:20:36;;;;;;;;;;;19.00;99.90;;;;;;5066090;28;19912;-62
2022/06/12 06:23:01;;;;;;;;;;;19.00;99.90;;;;;;5068172;28;19919;-61
2022/06/12 06:25:28;;;;;;;;;;;19.10;99.90;;;;;;5066819;28;19904;-62
2022/06/12 06:27:54;;;;;;;;;;;19.20;99.90;;;;;;5065629;28;19972;-62
2022/06/12 06:30:20;;;;;;;;;;;19.20;99.90;;;;;;5056129;28;19960;-62
2022/06/12 06:32:46;;;;;;;;;;;19.40;99.90;;;;;;5061856;28;19924;-61
2022/06/12 06:35:12;;;;;;;;;;;19.60;99.90;;;;;;5063989;28;19939;-61
2022/06/12 06:37:37;;;;;;;;;;;19.80;99.90;;;;;;5064869;28;19962;-61
2022/06/12 06:40:04;;;;;;;;;;;19.90;99.90;;;;;;5066469;28;19912;-62
2022/06/12 06:42:29;;;;;;;;;;;20.00;99.90;;;;;;5047609;28;20031;-62
2022/06/12 06:47:40;;;;;;;;;;;20.20;99.90;;;;;;5061123;28;19977;-62
2022/06/12 06:50:07;;;;;;;;;;;20.40;99.90;;;;;;5066171;28;19912;-62
2022/06/12 06:52:33;;;;;;;;;;;20.50;99.90;;;;;;5050259;28;19908;-62
2022/06/12 06:54:59;;;;;;;;;;;20.60;99.90;;;;;;5066907;28;19912;-61
2022/06/12 06:57:24;;;;;;;;;;;20.70;99.90;;;;;;5064721;28;20431;-62
2022/06/12 06:59:50;;;;;;;;;;;20.80;99.90;;;;;;5068874;28;19919;-62
2022/06/12 07:02:15;;;;;;;;;;;21.00;99.90;;;;;;5068053;28;19963;-62
2022/06/12 07:04:41;;;;;;;;;;;21.10;99.90;;;;;;5069371;28;19909;-61
2022/06/12 07:07:08;;;;;;;;;;;21.20;99.90;;;;;;5061957;28;19908;-62
2022/06/12 07:09:34;;;;;;;;;;;21.30;99.90;;;;;;5067113;28;19908;-62
2022/06/12 07:12:00;;;;;;;;;;;21.50;99.90;;;;;;5066747;28;19951;-62
2022/06/12 07:14:27;;;;;;;;;;;21.60;99.90;;;;;;5064446;28;19931;-62
2022/06/12 07:16:53;;;;;;;;;;;21.70;99.90;;;;;;5069330;28;19908;-62
2022/06/12 07:19:18;;;;;;;;;;;21.90;99.90;;;;;;5067627;28;19912;-62
2022/06/12 07:21:44;;;;;;;;;;;21.90;99.90;;;;;;5068870;28;19916;-62
2022/06/12 07:24:11;;;;;;;;;;;22.00;99.90;;;;;;5067922;28;19927;-64
2022/06/12 07:26:38;;;;;;;;;;;22.20;99.90;;;;;;5061899;28;20007;-62
2022/06/12 07:29:04;;;;;;;;;;;22.30;99.90;;;;;;5068996;28;20259;-62
2022/06/12 07:31:30;;;;;;;;;;;22.50;99.90;;;;;;5066611;28;19973;-62
2022/06/12 07:33:56;;;;;;;;;;;22.50;99.90;;;;;;5067216;28;20281;-63
2022/06/12 07:36:21;;;;;;;;;;;22.70;99.90;;;;;;5061099;28;19916;-62
2022/06/12 07:38:48;;;;;;;;;;;23.00;99.90;;;;;;5065340;28;20277;-62
2022/06/12 07:41:13;;;;;;;;;;;23.10;99.90;;;;;;5050406;28;19913;-65
2022/06/12 07:43:40;;;;;;;;;;;23.20;99.90;;;;;;5068256;28;19963;-62
2022/06/12 07:46:06;;;;;;;;;;;23.20;99.90;;;;;;5068086;28;19919;-62
2022/06/12 07:48:32;;;;;;;;;;;23.30;99.90;;;;;;5066095;28;19904;-62
2022/06/12 07:50:59;;;;;;;;;;;23.40;99.90;;;;;;5068297;28;19912;-62
2022/06/12 07:53:24;;;;;;;;;;;23.40;99.90;;;;;;5067333;28;19915;-62
2022/06/12 07:55:50;;;;;;;;;;;23.50;99.90;;;;;;5064791;28;20641;-62
2022/06/12 07:58:16;;;;;;;;;;;23.60;99.90;;;;;;5058895;28;19915;-62
2022/06/12 08:00:42;;;;;;;;;;;23.80;99.90;;;;;;5048893;28;19909;-62
2022/06/12 08:03:08;;;;;;;;;;;24.00;99.90;;;;;;5054756;28;20215;-62
2022/06/12 08:05:33;;;;;;;;;;;24.20;99.90;;;;;;5056600;28;19978;-63
2022/06/12 08:07:59;;;;;;;;;;;24.10;99.90;;;;;;5055609;28;19985;-62
2022/06/12 08:10:25;;;;;;;;;;;24.10;99.90;;;;;;5067969;28;19915;-61
2022/06/12 08:12:50;;;;;;;;;;;24.00;99.90;;;;;;5063606;28;19913;-62
2022/06/12 08:15:19;;;;;;;;;;;24.00;99.90;;;;;;5062538;28;19916;-62
2022/06/12 08:17:45;;;;;;;;;;;24.20;99.90;;;;;;5055840;28;19919;-62
2022/06/12 08:20:30;;;;;;;;;;;24.30;99.90;;;;;;5066308;28;19912;-63
2022/06/12 08:22:57;;;;;;;;;;;24.50;99.90;;;;;;5067678;28;19920;-63
2022/06/12 08:25:23;;;;;;;;;;;24.80;99.90;;;;;;5064806;28;19912;-62
2022/06/12 08:27:49;;;;;;;;;;;24.80;99.90;;;;;;5067082;28;20369;-62
2022/06/12 08:30:14;;;;;;;;;;;24.70;99.90;;;;;;5070111;28;20001;-65
2022/06/12 08:32:41;;;;;;;;;;;24.60;99.90;;;;;;5051973;28;19924;-62
2022/06/12 08:35:09;;;;;;;;;;;24.70;99.90;;;;;;5065462;28;19938;-63
2022/06/12 08:37:36;;;;;;;;;;;24.80;99.90;;;;;;5069256;28;19909;-63
2022/06/12 08:40:03;;;;;;;;;;;25.10;97.70;;;;;;5063346;28;19904;-63
2022/06/12 08:42:31;;;;;;;;;;;25.30;97.10;;;;;;5054318;28;20974;-63
2022/06/12 08:45:06;;;;;;;;;;;25.30;95.40;;;;;;5069583;28;19930;-63
2022/06/12 08:47:31;;;;;;;;;;;25.40;98.00;;;;;;5071906;28;19970;-64
2022/06/12 08:50:10;;;;;;;;;;;25.40;97.30;;;;;;5069672;28;20362;-63
2022/06/12 08:52:42;;;;;;;;;;;25.70;94.50;;;;;;5069647;28;19976;-63
2022/06/12 08:55:12;;;;;;;;;;;25.70;93.00;;;;;;5070734;28;20345;-63
2022/06/12 08:57:46;;;;;;;;;;;25.70;92.70;;;;;;5070675;28;19912;-63
2022/06/12 09:00:17;;;;;;;;;;;25.90;92.60;;;;;;5062446;28;20377;-63
2022/06/12 09:02:43;;;;;;;;;;;26.20;93.80;;;;;;5052155;28;19982;-63
2022/06/12 09:05:11;;;;;;;;;;;26.40;92.20;;;;;;5060311;28;19912;-64
2022/06/12 09:07:49;;;;;;;;;;;26.70;90.90;;;;;;5063963;28;19961;-63
2022/06/12 09:10:32;;;;;;;;;;;26.90;86.80;;;;;;5070292;28;19912;-65
2022/06/12 09:13:16;;;;;;;;;;;26.90;87.10;;;;;;5070379;28;19965;-63
2022/06/12 09:15:45;;;;;;;;;;;27.10;87.20;;;;;;5056148;28;19917;-62
2022/06/12 09:18:10;;;;;;;;;;;27.20;81.70;;;;;;5066700;28;19995;-63
2022/06/12 09:20:48;;;;;;;;;;;27.30;85.70;;;;;;5063824;28;20027;-63
2022/06/12 09:23:16;;;;;;;;;;;27.60;81.50;;;;;;5071450;28;19927;-63
2022/06/12 09:25:51;;;;;;;;;;;27.60;83.10;;;;;;5068134;28;19991;-63
2022/06/12 09:28:22;;;;;;;;;;;27.70;78.00;;;;;;5066306;28;20415;-66
2022/06/12 09:31:08;;;;;;;;;;;27.60;78.40;;;;;;5061671;28;20003;-63
2022/06/12 09:33:49;;;;;;;;;;;27.70;79.20;;;;;;5050056;28;19969;-63
2022/06/12 09:36:20;;;;;;;;;;;27.60;78.90;;;;;;5066457;28;19908;-63
2022/06/12 09:38:51;;;;;;;;;;;27.60;81.60;;;;;;5064480;28;19935;-64
2022/06/12 09:41:22;;;;;;;;;;;27.60;81.80;;;;;;5071144;28;20269;-65
2022/06/12 09:43:55;;;;;;;;;;;27.60;75.00;;;;;;5071030;28;19924;-63
2022/06/12 09:46:21;;;;;;;;;;;27.60;80.90;;;;;;5059784;28;19909;-65
2022/06/12 09:48:55;;;;;;;;;;;27.80;74.70;;;;;;5069344;28;19991;-63
2022/06/12 09:51:26;;;;;;;;;;;27.80;71.70;;;;;;5068936;28;19912;-66
2022/06/12 09:53:52;;;;;;;;;;;27.80;71.70;;;;;;5066437;28;19979;-63
2022/06/12 09:56:24;;;;;;;;;;;27.90;77.70;;;;;;5066391;28;19919;-66
2022/06/12 09:58:56;;;;;;;;;;;27.80;75.40;;;;;;5071111;28;20020;-64
2022/06/12 10:01:26;;;;;;;;;;;27.80;73.80;;;;;;5065059;28;20346;-65
2022/06/12 10:03:59;;;;;;;;;;;27.60;75.40;;;;;;5059615;28;19916;-63
2022/06/12 10:06:30;;;;;;;;;;;27.50;77.90;;;;;;5062178;28;19912;-64
2022/06/12 10:09:02;;;;;;;;;;;27.70;72.50;;;;;;5066666;28;20347;-64
2022/06/12 10:11:49;;;;;;;;;;;28.00;73.70;;;;;;5070194;28;19957;-63
2022/06/12 10:14:18;;;;;;;;;;;28.00;71.20;;;;;;5061763;28;19973;-63
2022/06/12 10:16:53;;;;;;;;;;;27.80;73.20;;;;;;5064226;28;20007;-62
2022/06/12 10:19:23;;;;;;;;;;;27.30;78.00;;;;;;5061500;28;20420;-66
2022/06/12 10:21:53;;;;;;;;;;;27.20;74.80;;;;;;5063339;28;19958;-64
2022/06/12 10:24:19;;;;;;;;;;;27.50;74.10;;;;;;5067836;28;19967;-65
2022/06/12 10:26:55;;;;;;;;;;;27.80;72.70;;;;;;5068703;28;20371;-63
2022/06/12 10:29:24;;;;;;;;;;;28.10;72.20;;;;;;5060768;28;19919;-66
2022/06/12 10:31:58;;;;;;;;;;;28.30;70.70;;;;;;5066561;28;20007;-63
2022/06/12 10:34:28;;;;;;;;;;;28.30;72.70;;;;;;5063443;28;19959;-66
2022/06/12 10:36:55;;;;;;;;;;;28.20;80.20;;;;;;5067748;28;20369;-63
2022/06/12 10:39:22;;;;;;;;;;;28.50;72.00;;;;;;5066800;28;19912;-66
2022/06/12 10:41:55;;;;;;;;;;;28.70;70.00;;;;;;5064582;28;20407;-63
2022/06/12 10:44:33;;;;;;;;;;;28.50;69.60;;;;;;5065619;28;19969;-66
2022/06/12 10:47:14;;;;;;;;;;;28.70;71.70;;;;;;5062376;28;20031;-63
2022/06/12 10:49:39;;;;;;;;;;;28.70;67.80;;;;;;5061990;28;20055;-64
2022/06/12 10:52:06;;;;;;;;;;;28.70;72.30;;;;;;5063376;28;20322;-62
2022/06/12 10:54:32;;;;;;;;;;;28.70;67.00;;;;;;5063608;28;20002;-63
2022/06/12 10:57:05;;;;;;;;;;;28.40;66.00;;;;;;5064937;28;20034;-63
2022/06/12 10:59:50;;;;;;;;;;;28.20;62.90;;;;;;5064695;28;19909;-63
2022/06/12 11:02:39;;;;;;;;;;;28.20;66.20;;;;;;5058087;28;19912;-63
2022/06/12 11:05:15;;;;;;;;;;;28.50;67.90;;;;;;5054881;28;20085;-63
2022/06/12 11:08:01;;;;;;;;;;;28.80;61.80;;;;;;5057428;28;19938;-64
2022/06/12 11:10:27;;;;;;;;;;;29.10;66.70;;;;;;5055097;28;19973;-66
2022/06/12 11:12:58;;;;;;;;;;;29.50;60.50;;;;;;5064334;28;19916;-64
2022/06/12 11:15:33;;;;;;;;;;;29.60;63.30;;;;;;5062647;28;20003;-66
2022/06/12 11:18:01;;;;;;;;;;;29.50;63.60;;;;;;5062598;28;19913;-64
2022/06/12 11:20:46;;;;;;;;;;;29.30;61.10;;;;;;5060697;28;19916;-63
2022/06/12 11:23:16;;;;;;;;;;;29.20;59.50;;;;;;5045751;28;19924;-63
2022/06/12 11:26:00;;;;;;;;;;;29.10;62.90;;;;;;5063319;28;19958;-63
2022/06/12 11:28:26;;;;;;;;;;;29.20;59.00;;;;;;5066918;28;20000;-66
2022/06/12 11:31:06;;;;;;;;;;;29.20;60.00;;;;;;5066476;28;19987;-63
2022/06/12 11:33:44;;;;;;;;;;;28.60;57.80;;;;;;5062707;28;19912;-62
2022/06/12 11:36:33;;;;;;;;;;;28.50;61.90;;;;;;5064865;28;19909;-63
2022/06/12 11:39:08;;;;;;;;;;;28.70;61.70;;;;;;5049017;28;19912;-62
2022/06/12 11:41:34;;;;;;;;;;;29.20;62.70;;;;;;5066373;28;19912;-63
2022/06/12 11:44:06;;;;;;;;;;;29.20;58.40;;;;;;5067113;28;19924;-63
2022/06/12 11:46:56;;;;;;;;;;;29.30;57.80;;;;;;5068161;28;19927;-62
2022/06/12 11:49:28;;;;;;;;;;;29.60;58.10;;;;;;5067308;28;20358;-62
2022/06/12 11:52:02;;;;;;;;;;;29.50;55.40;;;;;;5069076;28;19969;-61
2022/06/12 11:54:37;;;;;;;;;;;29.40;55.20;;;;;;5065907;28;19908;-65
2022/06/12 11:57:02;;;;;;;;;;;29.10;55.80;;;;;;5067720;28;19909;-62
2022/06/12 11:59:28;;;;;;;;;;;29.20;55.60;;;;;;5063900;28;19912;-64
2022/06/12 12:02:07;;;;;;;;;;;29.20;57.00;;;;;;5067287;28;19919;-63
2022/06/12 12:04:45;;;;;;;;;;;29.20;55.00;;;;;;5064417;28;19920;-63
2022/06/12 12:07:12;;;;;;;;;;;29.40;53.70;;;;;;5048320;28;20266;-63
2022/06/12 12:09:44;;;;;;;;;;;29.60;55.80;;;;;;5047479;28;19909;-62
2022/06/12 12:12:13;;;;;;;;;;;29.50;56.90;;;;;;5065564;28;20370;-62
2022/06/12 12:14:41;;;;;;;;;;;29.40;57.50;;;;;;5067986;28;20297;-62
2022/06/12 12:17:10;;;;;;;;;;;29.30;56.50;;;;;;5067765;28;19920;-63
2022/06/12 12:19:35;;;;;;;;;;;29.40;54.70;;;;;;5062453;28;19966;-62
2022/06/12 12:22:10;;;;;;;;;;;29.50;55.70;;;;;;5062172;28;19948;-62
2022/06/12 12:24:45;;;;;;;;;;;29.70;55.90;;;;;;5061798;28;19920;-62
2022/06/12 12:27:17;;;;;;;;;;;29.90;56.20;;;;;;5066843;28;19912;-63
2022/06/12 12:29:44;;;;;;;;;;;29.90;53.50;;;;;;5066160;28;19908;-63
2022/06/12 12:32:10;;;;;;;;;;;29.90;56.30;;;;;;5066538;28;19927;-63
2022/06/12 12:34:37;;;;;;;;;;;29.80;54.30;;;;;;5061805;28;20011;-62
2022/06/12 12:42:40;;;;;;;;;;;29.50;52.00;;;;;;5058934;28;19939;-63
2022/06/12 12:45:23;;;;;;;;;;;30.00;54.50;;;;;;5068721;28;20632;-62
2022/06/12 12:48:06;;;;;;;;;;;30.10;52.50;;;;;;5047431;28;20606;-62
2022/06/12 12:50:45;;;;;;;;;;;30.40;52.70;;;;;;5030349;28;20325;-64
2022/06/12 12:53:26;;;;;;;;;;;30.50;53.30;;;;;;5067565;28;19912;-63
2022/06/12 12:56:12;;;;;;;;;;;30.50;50.70;;;;;;5066643;28;20420;-62
2022/06/12 12:58:39;;;;;;;;;;;30.50;51.20;;;;;;5065371;28;20247;-63
2022/06/12 13:01:07;;;;;;;;;;;30.60;52.80;;;;;;5049013;28;20341;-62
2022/06/12 13:03:41;;;;;;;;;;;30.50;52.40;;;;;;5067517;28;19977;-64
2022/06/12 13:06:07;;;;;;;;;;;30.70;49.90;;;;;;5067347;28;20545;-62
2022/06/12 13:08:43;;;;;;;;;;;30.70;50.00;;;;;;5065432;28;19954;-65
2022/06/12 13:11:44;;;;;;;;;;;30.80;51.00;;;;;;5067868;28;19912;-62
2022/06/12 13:14:15;;;;;;;;;;;30.40;48.30;;;;;;5005551;28;19914;-63
2022/06/12 13:16:48;;;;;;;;;;;30.40;53.30;;;;;;5057650;28;20328;-62
2022/06/12 13:19:17;;;;;;;;;;;30.50;52.40;;;;;;5072023;28;20391;-62
2022/06/12 13:21:50;;;;;;;;;;;30.70;51.80;;;;;;5068151;28;19909;-62
2022/06/12 13:24:36;;;;;;;;;;;30.80;49.40;;;;;;5070488;28;19920;-62
2022/06/12 13:27:20;;;;;;;;;;;30.50;50.40;;;;;;5070077;28;19909;-61
2022/06/12 13:29:46;;;;;;;;;;;30.20;49.60;;;;;;5070931;28;19909;-62
2022/06/12 13:32:19;;;;;;;;;;;30.10;51.60;;;;;;5068740;28;19927;-62
2022/06/12 13:34:53;;;;;;;;;;;30.30;46.60;;;;;;5069846;28;20010;-62
2022/06/12 13:37:18;;;;;;;;;;;30.50;49.20;;;;;;5070827;28;19934;-64
2022/06/12 13:39:46;;;;;;;;;;;30.50;48.50;;;;;;5068059;28;20278;-62
2022/06/12 13:42:13;;;;;;;;;;;30.70;48.40;;;;;;5071212;28;20293;-62
2022/06/12 13:44:41;;;;;;;;;;;30.40;48.10;;;;;;5067803;28;19955;-62
2022/06/12 13:47:18;;;;;;;;;;;30.40;48.30;;;;;;5071148;28;19911;-62
2022/06/12 13:49:51;;;;;;;;;;;30.50;48.50;;;;;;5068396;28;19916;-61
2022/06/12 13:52:19;;;;;;;;;;;30.60;50.00;;;;;;5069618;28;19916;-61
2022/06/12 13:54:45;;;;;;;;;;;30.50;50.30;;;;;;5070010;28;19912;-61
2022/06/12 13:57:13;;;;;;;;;;;30.40;51.70;;;;;;5062314;28;19958;-61
2022/06/12 13:59:40;;;;;;;;;;;30.00;52.90;;;;;;5070477;28;19908;-61
2022/06/12 14:02:15;;;;;;;;;;;30.00;55.70;;;;;;5066428;28;20645;-62
2022/06/12 14:04:48;;;;;;;;;;;30.30;52.40;;;;;;5068419;28;19930;-62
2022/06/12 14:07:13;;;;;;;;;;;30.60;51.20;;;;;;5063031;28;20304;-61
2022/06/12 14:09:40;;;;;;;;;;;30.60;51.60;;;;;;5067669;28;19909;-62
2022/06/12 14:12:05;;;;;;;;;;;30.70;54.00;;;;;;5061581;28;19912;-61
2022/06/12 14:14:36;;;;;;;;;;;30.60;51.70;;;;;;5070019;28;19962;-61
2022/06/12 14:17:02;;;;;;;;;;;30.40;51.60;;;;;;5066550;28;19982;-62
2022/06/12 14:19:29;;;;;;;;;;;30.00;52.10;;;;;;5070805;28;20610;-62
2022/06/12 14:22:13;;;;;;;;;;;29.70;53.80;;;;;;5068932;28;19904;-61
2022/06/12 14:24:40;;;;;;;;;;;29.70;54.10;;;;;;5064218;28;19920;-64
2022/06/12 14:29:36;;;;;;;3.67;2.95;;;28.90;51.00;;;;;;5106386;27;20123;-63
2022/06/12 14:32:11;;;;;;;5.20;3.35;;;28.90;53.40;;;;;;5091063;28;20111;-63
2022/06/12 14:34:45;;;;;;;5.15;3.00;;;29.00;54.20;;;;;;5087002;28;20032;-66
2022/06/12 14:37:46;;;;;;;5.70;3.05;;;29.30;55.70;;;;;;5095629;28;20039;-63
2022/06/12 14:40:21;;;;;;;4.45;2.97;;;29.40;56.40;;;;;;5041322;28;20040;-63
2022/06/12 14:42:55;;;;;;;8.40;3.47;;;29.70;56.60;;;;;;5079196;28;20040;-63
2022/06/12 14:45:22;;;;;;;5.03;2.80;;;30.10;58.30;;;;;;5087321;28;20056;-64